Time,TemperatureF,DewpointF,PressureIn,WindDirection,WindDirectionDegrees,WindSpeedMPH,WindSpeedGustMPH,Humidity,HourlyPrecipIn,Conditions,Clouds,dailyrainin,SoftwareType,DateUTC
2013-01-05 00:05:00,73.0,73.0,30.12,East,80,0.0,0.0,100,0.00,,,0.00,Wunderground v.1.15,2013-01-05 05:05:00,
2013-01-05 00:10:00,73.0,73.0,30.12,East,80,0.0,0.0,100,0.00,,,0.00,Wunderground v.1.15,2013-01-05 05:10:00,
2013-01-05 00:15:00,73.0,73.0,30.11,East,80,0.0,0.0,100,0.00,,,0.00,Wunderground v.1.15,2013-01-05 05:15:00,
2013-01-05 00:25:00,73.0,73.0,30.11,East,80,0.0,0.0,100,0.00,,,0.00,Wunderground v.1.15,2013-01-05 05:25:00,
2013-01-05 00:35:00,72.8,72.8,30.11,East,80,0.0,0.0,100,0.00,,,0.00,Wunderground v.1.15,2013-01-05 05:35:00,
2013-01-05 00:45:00,72.7,72.7,30.11,East,80,2.0,2.0,100,0.00,,,0.00,Wunderground v.1.15,2013-01-05 05:45:00,
2013-01-05 00:55:00,72.5,72.5,30.11,East,80,1.0,2.0,100,0.00,,,0.00,Wunderground v.1.15,2013-01-05 05:55:00,
2013-01-05 01:00:00,72.5,72.5,30.10,East,80,0.0,0.0,100,0.00,,,0.00,Wunderground v.1.15,2013-01-05 06:00:00,
2013-01-05 01:05:00,72.5,72.5,30.10,East,80,0.0,0.0,100,0.00,,,0.00,Wunderground v.1.15,2013-01-05 06:05:00,
2013-01-05 01:15:00,72.7,72.7,30.10,East,80,0.0,0.0,100,0.00,,,0.00,Wunderground v.1.15,2013-01-05 06:15:00,
2013-01-05 01:25:00,72.7,72.7,30.10,East,80,0.0,0.0,100,0.00,,,0.00,Wunderground v.1.15,2013-01-05 06:25:00,
2013-01-05 01:30:00,72.7,72.7,30.09,East,80,0.0,0.0,100,0.00,,,0.00,Wunderground v.1.15,2013-01-05 06:30:00,
2013-01-05 01:40:00,72.5,72.5,30.09,East,80,0.0,0.0,100,0.00,,,0.00,Wunderground v.1.15,2013-01-05 06:40:00,
2013-01-05 01:50:00,72.3,72.3,30.09,East,80,0.0,0.0,100,0.00,,,0.00,Wunderground v.1.15,2013-01-05 06:50:00,
2013-01-05 02:00:00,72.5,72.5,30.09,East,80,0.0,0.0,100,0.00,,,0.00,Wunderground v.1.15,2013-01-05 07:00:00,
2013-01-05 02:05:00,72.5,72.5,30.09,East,80,0.0,0.0,100,0.00,,,0.00,Wunderground v.1.15,2013-01-05 07:05:00,
2013-01-05 02:15:00,72.5,72.5,30.08,East,80,0.0,0.0,100,0.00,,,0.00,Wunderground v.1.15,2013-01-05 07:15:00,
2013-01-05 02:25:00,72.7,72.7,30.08,East,80,0.0,0.0,100,0.00,,,0.00,Wunderground v.1.15,2013-01-05 07:25:00,
2013-01-05 02:30:00,72.7,72.7,30.08,East,80,0.0,2.0,100,0.00,,,0.00,Wunderground v.1.15,2013-01-05 07:30:00,
2013-01-05 02:40:00,73.0,73.0,30.08,East,80,1.0,1.0,100,0.00,,,0.00,Wunderground v.1.15,2013-01-05 07:40:00,
2013-01-05 02:50:00,72.7,72.7,30.07,East,80,0.0,0.0,100,0.00,,,0.00,Wunderground v.1.15,2013-01-05 07:50:00,
2013-01-05 03:00:00,72.5,72.5,30.07,East,80,0.0,0.0,100,0.00,,,0.00,Wunderground v.1.15,2013-01-05 08:00:00,
2013-01-05 03:10:00,72.5,72.5,30.07,East,80,0.0,0.0,100,0.00,,,0.00,Wunderground v.1.15,2013-01-05 08:10:00,
2013-01-05 03:20:00,72.5,72.5,30.07,East,80,0.0,0.0,100,0.00,,,0.00,Wunderground v.1.15,2013-01-05 08:20:00,
2013-01-05 03:30:00,72.5,72.5,30.07,East,80,0.0,0.0,100,0.00,,,0.00,Wunderground v.1.15,2013-01-05 08:30:00,
2013-01-05 03:35:00,72.5,72.5,30.07,East,80,0.0,0.0,100,0.00,,,0.00,Wunderground v.1.15,2013-01-05 08:35:00,
2013-01-05 03:45:00,72.1,72.1,30.07,East,80,0.0,0.0,100,0.00,,,0.00,Wunderground v.1.15,2013-01-05 08:45:00,
2013-01-05 03:55:00,72.1,72.1,30.07,East,80,0.0,0.0,100,0.00,,,0.00,Wunderground v.1.15,2013-01-05 08:55:00,
2013-01-05 04:05:00,72.3,72.3,30.07,East,80,0.0,0.0,100,0.00,,,0.00,Wunderground v.1.15,2013-01-05 09:05:00,
2013-01-05 04:15:00,72.7,72.7,30.07,East,80,2.0,5.0,100,0.00,,,0.01,Wunderground v.1.15,2013-01-05 09:15:00,
2013-01-05 04:25:00,73.0,73.0,30.07,ENE,71,4.0,7.0,100,0.00,,,0.01,Wunderground v.1.15,2013-01-05 09:25:00,
2013-01-05 04:35:00,73.3,73.3,30.07,ENE,68,5.0,5.0,100,0.00,,,0.01,Wunderground v.1.15,2013-01-05 09:35:00,
2013-01-05 04:40:00,73.5,73.5,30.07,ENE,68,5.0,5.0,100,0.00,,,0.01,Wunderground v.1.15,2013-01-05 09:40:00,
2013-01-05 04:50:00,73.5,73.5,30.07,ENE,72,5.0,6.0,100,0.00,,,0.01,Wunderground v.1.15,2013-01-05 09:50:00,
2013-01-05 04:55:00,73.7,73.7,30.07,ENE,72,4.0,6.0,100,0.00,,,0.01,Wunderground v.1.15,2013-01-05 09:55:00,
2013-01-05 05:10:00,74.0,74.0,30.07,ENE,72,4.0,4.0,100,0.00,,,0.01,Wunderground v.1.15,2013-01-05 10:10:00,
2013-01-05 05:20:00,74.0,74.0,30.07,ENE,72,3.0,3.0,100,0.00,,,0.01,Wunderground v.1.15,2013-01-05 10:20:00,
2013-01-05 05:25:00,74.2,74.2,30.07,ENE,72,3.0,6.0,100,0.00,,,0.01,Wunderground v.1.15,2013-01-05 10:25:00,
2013-01-05 05:35:00,74.4,74.4,30.08,ENE,72,4.0,4.0,100,0.00,,,0.01,Wunderground v.1.15,2013-01-05 10:35:00,
2013-01-05 05:45:00,74.4,74.4,30.08,ENE,72,2.0,4.0,100,0.00,,,0.01,Wunderground v.1.15,2013-01-05 10:45:00,
2013-01-05 05:55:00,74.4,74.4,30.08,ENE,72,1.0,3.0,100,0.00,,,0.01,Wunderground v.1.15,2013-01-05 10:55:00,
2013-01-05 06:00:00,74.4,74.4,30.07,ENE,73,1.0,1.0,100,0.00,,,0.01,Wunderground v.1.15,2013-01-05 11:00:00,
2013-01-05 06:10:00,74.6,74.6,30.07,ENE,75,3.0,5.0,100,0.00,,,0.01,Wunderground v.1.15,2013-01-05 11:10:00,
2013-01-05 06:20:00,74.6,74.6,30.08,ENE,76,2.0,2.0,100,0.00,,,0.01,Wunderground v.1.15,2013-01-05 11:20:00,
2013-01-05 06:30:00,74.6,74.6,30.08,ENE,78,3.0,3.0,100,0.00,,,0.01,Wunderground v.1.15,2013-01-05 11:30:00,
2013-01-05 06:40:00,74.6,74.6,30.08,ENE,73,3.0,6.0,100,0.00,,,0.01,Wunderground v.1.15,2013-01-05 11:40:00,
2013-01-05 06:45:00,74.7,74.7,30.08,ENE,78,4.0,6.0,100,0.00,,,0.01,Wunderground v.1.15,2013-01-05 11:45:00,
2013-01-05 06:55:00,74.7,74.7,30.08,ENE,73,4.0,5.0,100,0.00,,,0.01,Wunderground v.1.15,2013-01-05 11:55:00,
2013-01-05 07:05:00,74.4,74.4,30.09,ENE,73,1.0,2.0,100,0.00,,,0.01,Wunderground v.1.15,2013-01-05 12:05:00,
2013-01-05 07:15:00,74.6,74.6,30.09,ENE,73,3.0,7.0,100,0.00,,,0.01,Wunderground v.1.15,2013-01-05 12:15:00,
2013-01-05 07:20:00,74.6,74.6,30.09,ENE,72,4.0,4.0,100,0.00,,,0.01,Wunderground v.1.15,2013-01-05 12:20:00,
2013-01-05 07:30:00,74.6,74.6,30.10,ENE,72,5.0,5.0,100,0.00,,,0.01,Wunderground v.1.15,2013-01-05 12:30:00,
2013-01-05 07:40:00,74.7,74.7,30.10,ENE,72,4.0,4.0,100,0.00,,,0.01,Wunderground v.1.15,2013-01-05 12:40:00,
2013-01-05 07:50:00,74.9,74.9,30.10,ENE,72,1.0,1.0,100,0.00,,,0.01,Wunderground v.1.15,2013-01-05 12:50:00,
2013-01-05 07:55:00,74.9,74.9,30.10,ENE,72,1.0,1.0,100,0.00,,,0.01,Wunderground v.1.15,2013-01-05 12:55:00,
2013-01-05 08:10:00,75.3,75.3,30.11,ENE,71,2.0,5.0,100,0.00,,,0.01,Wunderground v.1.15,2013-01-05 13:10:00,
2013-01-05 08:15:00,75.3,75.3,30.11,ENE,71,2.0,5.0,100,0.00,,,0.01,Wunderground v.1.15,2013-01-05 13:15:00,
2013-01-05 08:20:00,75.6,75.6,30.11,ENE,71,2.0,6.0,100,0.00,,,0.01,Wunderground v.1.15,2013-01-05 13:20:00,
2013-01-05 08:25:00,75.8,75.8,30.11,ENE,71,3.0,6.0,100,0.00,,,0.01,Wunderground v.1.15,2013-01-05 13:25:00,
2013-01-05 08:30:00,75.6,75.6,30.11,East,79,4.0,4.0,100,0.00,,,0.01,Wunderground v.1.15,2013-01-05 13:30:00,
2013-01-05 08:35:00,75.4,75.4,30.11,ENE,76,4.0,6.0,100,0.00,,,0.01,Wunderground v.1.15,2013-01-05 13:35:00,
2013-01-05 08:40:00,75.6,75.6,30.11,ENE,75,4.0,8.0,100,0.00,,,0.01,Wunderground v.1.15,2013-01-05 13:40:00,
2013-01-05 08:50:00,76.0,76.0,30.12,ENE,72,2.0,2.0,100,0.00,,,0.01,Wunderground v.1.15,2013-01-05 13:50:00,
2013-01-05 09:00:00,76.0,76.0,30.12,ENE,71,1.0,1.0,100,0.00,,,0.01,Wunderground v.1.15,2013-01-05 14:00:00,
2013-01-05 09:05:00,74.9,74.9,30.12,NNE,23,4.0,4.0,100,0.00,,,0.01,Wunderground v.1.15,2013-01-05 14:05:00,
2013-01-05 09:15:00,73.5,73.5,30.12,North,10,6.0,10.0,100,0.00,,,0.01,Wunderground v.1.15,2013-01-05 14:15:00,
2013-01-05 09:25:00,73.5,73.5,30.12,NNE,23,6.0,7.0,100,0.00,,,0.01,Wunderground v.1.15,2013-01-05 14:25:00,
2013-01-05 09:30:00,73.3,73.3,30.13,NNE,20,5.0,5.0,100,0.00,,,0.01,Wunderground v.1.15,2013-01-05 14:30:00,
2013-01-05 09:40:00,73.9,73.9,30.13,NE,34,4.0,8.0,100,0.00,,,0.01,Wunderground v.1.15,2013-01-05 14:40:00,
2013-01-05 09:45:00,74.2,74.2,30.13,NE,37,4.0,8.0,100,0.00,,,0.01,Wunderground v.1.15,2013-01-05 14:45:00,
2013-01-05 09:55:00,74.6,74.6,30.13,NE,34,5.0,7.0,100,0.00,,,0.01,Wunderground v.1.15,2013-01-05 14:55:00,
2013-01-05 10:05:00,74.7,74.7,30.13,NNE,17,5.0,11.0,100,0.00,,,0.01,Wunderground v.1.15,2013-01-05 15:05:00,
2013-01-05 10:10:00,74.2,74.2,30.13,NNE,24,7.0,7.0,100,0.00,,,0.01,Wunderground v.1.15,2013-01-05 15:10:00,
2013-01-05 10:20:00,74.6,74.6,30.13,NNE,24,3.0,8.0,100,0.00,,,0.01,Wunderground v.1.15,2013-01-05 15:20:00,
2013-01-05 10:30:00,74.0,74.0,30.13,NNE,20,6.0,6.0,100,0.00,,,0.01,Wunderground v.1.15,2013-01-05 15:30:00,
2013-01-05 10:40:00,73.7,73.7,30.13,NNE,20,5.0,5.0,100,0.00,,,0.01,Wunderground v.1.15,2013-01-05 15:40:00,
2013-01-05 10:50:00,73.5,73.5,30.13,NE,37,4.0,4.0,100,0.00,,,0.01,Wunderground v.1.15,2013-01-05 15:50:00,
2013-01-05 10:55:00,73.5,73.5,30.13,NE,38,4.0,8.0,100,0.00,,,0.01,Wunderground v.1.15,2013-01-05 15:55:00,
2013-01-05 11:05:00,74.0,74.0,30.12,NNE,28,5.0,7.0,100,0.00,,,0.01,Wunderground v.1.15,2013-01-05 16:05:00,
2013-01-05 11:15:00,74.9,74.9,30.12,NNE,25,4.0,5.0,100,0.00,,,0.01,Wunderground v.1.15,2013-01-05 16:15:00,
2013-01-05 11:25:00,75.3,75.3,30.12,NNE,31,5.0,11.0,100,0.00,,,0.01,Wunderground v.1.15,2013-01-05 16:25:00,
2013-01-05 11:35:00,75.6,75.6,30.11,NNE,27,5.0,7.0,100,0.00,,,0.01,Wunderground v.1.15,2013-01-05 16:35:00,
2013-01-05 11:45:00,76.7,76.7,30.11,NE,48,3.0,7.0,100,0.00,,,0.01,Wunderground v.1.15,2013-01-05 16:45:00,
2013-01-05 11:55:00,75.8,75.8,30.11,NNE,24,4.0,7.0,100,0.00,,,0.01,Wunderground v.1.15,2013-01-05 16:55:00,
2013-01-05 12:00:00,75.4,75.4,30.10,NNE,24,5.0,5.0,100,0.00,,,0.01,Wunderground v.1.15,2013-01-05 17:00:00,
2013-01-05 12:10:00,76.1,76.1,30.10,NNE,24,2.0,2.0,100,0.00,,,0.01,Wunderground v.1.15,2013-01-05 17:10:00,
2013-01-05 12:20:00,76.0,76.0,30.10,NE,38,4.0,4.0,100,0.00,,,0.01,Wunderground v.1.15,2013-01-05 17:20:00,
2013-01-05 12:30:00,76.5,76.5,30.09,NE,49,5.0,5.0,100,0.00,,,0.01,Wunderground v.1.15,2013-01-05 17:30:00,
2013-01-05 12:40:00,77.0,77.0,30.09,NE,54,4.0,4.0,100,0.00,,,0.01,Wunderground v.1.15,2013-01-05 17:40:00,
2013-01-05 12:50:00,76.7,76.7,30.08,ENE,59,7.0,7.0,100,0.00,,,0.01,Wunderground v.1.15,2013-01-05 17:50:00,
2013-01-05 12:55:00,77.4,77.4,30.08,ENE,59,5.0,7.0,100,0.00,,,0.01,Wunderground v.1.15,2013-01-05 17:55:00,
2013-01-05 13:05:00,77.7,77.7,30.07,ENE,64,4.0,6.0,100,0.00,,,0.01,Wunderground v.1.15,2013-01-05 18:05:00,
2013-01-05 13:15:00,78.1,78.1,30.07,ENE,62,5.0,8.0,100,0.00,,,0.01,Wunderground v.1.15,2013-01-05 18:15:00,
2013-01-05 13:20:00,78.5,78.5,30.07,ENE,62,4.0,4.0,100,0.00,,,0.01,Wunderground v.1.15,2013-01-05 18:20:00,
2013-01-05 13:30:00,78.5,78.5,30.06,ENE,65,4.0,4.0,100,0.00,,,0.01,Wunderground v.1.15,2013-01-05 18:30:00,
2013-01-05 13:35:00,78.6,78.6,30.06,ENE,65,4.0,6.0,100,0.00,,,0.01,Wunderground v.1.15,2013-01-05 18:35:00,
2013-01-05 13:45:00,78.6,78.6,30.06,ENE,66,4.0,4.0,100,0.00,,,0.01,Wunderground v.1.15,2013-01-05 18:45:00,
2013-01-05 13:50:00,78.5,78.5,30.06,ENE,69,4.0,4.0,100,0.00,,,0.01,Wunderground v.1.15,2013-01-05 18:50:00,
2013-01-05 13:55:00,78.5,78.5,30.06,ENE,69,5.0,6.0,100,0.00,,,0.01,Wunderground v.1.15,2013-01-05 18:55:00,
2013-01-05 14:05:00,78.5,78.5,30.05,ENE,71,4.0,5.0,100,0.00,,,0.01,Wunderground v.1.15,2013-01-05 19:05:00,
2013-01-05 14:15:00,78.5,-99.9,30.05,ENE,66,4.0,6.0,255,0.00,,,0.01,Wunderground v.1.15,2013-01-05 19:15:00,
2013-01-05 14:25:00,77.9,77.9,30.05,ENE,69,7.0,8.0,100,0.00,,,0.01,Wunderground v.1.15,2013-01-05 19:25:00,
2013-01-05 14:35:00,77.6,77.6,30.05,ENE,66,8.0,8.0,100,0.00,,,0.01,Wunderground v.1.15,2013-01-05 19:35:00,
2013-01-05 14:45:00,77.4,77.4,30.04,ENE,68,8.0,8.0,100,0.00,,,0.01,Wunderground v.1.15,2013-01-05 19:45:00,
2013-01-05 14:55:00,77.4,77.4,30.04,ENE,62,8.0,8.0,100,0.00,,,0.01,Wunderground v.1.15,2013-01-05 19:55:00,
2013-01-05 15:00:00,77.4,77.4,30.04,ENE,66,8.0,8.0,100,0.00,,,0.01,Wunderground v.1.15,2013-01-05 20:00:00,
2013-01-05 15:05:00,77.7,77.7,30.04,ENE,66,7.0,8.0,100,0.00,,,0.01,Wunderground v.1.15,2013-01-05 20:05:00,
2013-01-05 15:15:00,77.9,77.9,30.04,ENE,66,6.0,10.0,100,0.00,,,0.01,Wunderground v.1.15,2013-01-05 20:15:00,
2013-01-05 15:20:00,78.1,78.1,30.04,ENE,59,6.0,6.0,100,0.00,,,0.01,Wunderground v.1.15,2013-01-05 20:20:00,
2013-01-05 15:30:00,78.3,78.3,30.04,ENE,64,4.0,4.0,100,0.00,,,0.01,Wunderground v.1.15,2013-01-05 20:30:00,
2013-01-05 15:40:00,77.9,77.9,30.04,ENE,59,7.0,7.0,100,0.00,,,0.01,Wunderground v.1.15,2013-01-05 20:40:00,
2013-01-05 15:50:00,77.9,77.9,30.04,ENE,66,7.0,12.0,100,0.00,,,0.01,Wunderground v.1.15,2013-01-05 20:50:00,
2013-01-05 16:00:00,77.9,77.9,30.05,ENE,61,7.0,7.0,100,0.00,,,0.01,Wunderground v.1.15,2013-01-05 21:00:00,
2013-01-05 16:10:00,77.4,77.4,30.05,ENE,62,7.0,7.0,100,0.00,,,0.01,Wunderground v.1.15,2013-01-05 21:10:00,
2013-01-05 16:15:00,77.4,77.4,30.05,NE,56,6.0,13.0,100,0.00,,,0.01,Wunderground v.1.15,2013-01-05 21:15:00,
2013-01-05 16:25:00,77.4,77.4,30.05,NE,52,6.0,12.0,100,0.00,,,0.01,Wunderground v.1.15,2013-01-05 21:25:00,
2013-01-05 16:35:00,77.2,77.2,30.05,NE,52,7.0,8.0,100,0.00,,,0.01,Wunderground v.1.15,2013-01-05 21:35:00,
2013-01-05 16:45:00,76.7,76.7,30.05,ENE,58,7.0,7.0,100,0.00,,,0.01,Wunderground v.1.15,2013-01-05 21:45:00,
2013-01-05 16:55:00,76.5,76.5,30.05,ENE,59,4.0,7.0,100,0.00,,,0.01,Wunderground v.1.15,2013-01-05 21:55:00,
2013-01-05 17:00:00,76.3,76.3,30.06,ENE,61,5.0,5.0,100,0.00,,,0.01,Wunderground v.1.15,2013-01-05 22:00:00,
2013-01-05 17:10:00,76.1,76.1,30.06,ENE,59,3.0,3.0,100,0.00,,,0.01,Wunderground v.1.15,2013-01-05 22:10:00,
2013-01-05 17:20:00,76.0,76.0,30.06,ENE,59,5.0,6.0,100,0.00,,,0.01,Wunderground v.1.15,2013-01-05 22:20:00,
2013-01-05 17:30:00,76.0,76.0,30.06,ENE,61,3.0,3.0,100,0.00,,,0.01,Wunderground v.1.15,2013-01-05 22:30:00,
2013-01-05 17:40:00,76.0,76.0,30.06,NE,56,5.0,5.0,100,0.00,,,0.01,Wunderground v.1.15,2013-01-05 22:40:00,
2013-01-05 17:50:00,75.8,75.8,30.06,ENE,62,5.0,6.0,100,0.00,,,0.01,Wunderground v.1.15,2013-01-05 22:50:00,
2013-01-05 17:55:00,75.6,75.6,30.06,ENE,62,3.0,8.0,100,0.00,,,0.01,Wunderground v.1.15,2013-01-05 22:55:00,
2013-01-05 18:05:00,75.6,75.6,30.06,ENE,61,4.0,8.0,100,0.00,,,0.01,Wunderground v.1.15,2013-01-05 23:05:00,
2013-01-05 18:15:00,75.4,75.4,30.07,ENE,59,3.0,3.0,100,0.00,,,0.01,Wunderground v.1.15,2013-01-05 23:15:00,
2013-01-05 18:20:00,75.4,75.4,30.07,ENE,59,3.0,6.0,100,0.00,,,0.01,Wunderground v.1.15,2013-01-05 23:20:00,
2013-01-05 18:30:00,75.3,75.3,30.07,ENE,59,2.0,3.0,100,0.00,,,0.01,Wunderground v.1.15,2013-01-05 23:30:00,
2013-01-05 18:40:00,75.3,75.3,30.07,ENE,59,3.0,3.0,100,0.00,,,0.01,Wunderground v.1.15,2013-01-05 23:40:00,
2013-01-05 18:50:00,75.3,75.3,30.08,ENE,61,2.0,4.0,100,0.00,,,0.01,Wunderground v.1.15,2013-01-05 23:50:00,
2013-01-05 19:00:00,75.4,75.4,30.08,ENE,59,3.0,3.0,100,0.00,,,0.01,Wunderground v.1.15,2013-01-06 00:00:00,
2013-01-05 19:10:00,75.3,75.3,30.08,ENE,59,2.0,3.0,100,0.00,,,0.01,Wunderground v.1.15,2013-01-06 00:10:00,
2013-01-05 19:15:00,75.3,75.3,30.09,ENE,59,2.0,3.0,100,0.00,,,0.01,Wunderground v.1.15,2013-01-06 00:15:00,
2013-01-05 19:25:00,75.3,75.3,30.09,ENE,59,2.0,2.0,100,0.00,,,0.01,Wunderground v.1.15,2013-01-06 00:25:00,
2013-01-05 19:30:00,75.3,75.3,30.09,ENE,59,3.0,8.0,100,0.00,,,0.01,Wunderground v.1.15,2013-01-06 00:30:00,
2013-01-05 19:40:00,75.1,75.1,30.09,ENE,58,4.0,4.0,100,0.00,,,0.01,Wunderground v.1.15,2013-01-06 00:40:00,
2013-01-05 19:50:00,74.9,74.9,30.09,ENE,58,3.0,3.0,100,0.00,,,0.01,Wunderground v.1.15,2013-01-06 00:50:00,
2013-01-05 20:00:00,74.7,74.7,30.09,ENE,58,1.0,1.0,100,0.00,,,0.01,Wunderground v.1.15,2013-01-06 01:00:00,
2013-01-05 20:10:00,74.7,74.7,30.09,ENE,58,1.0,1.0,100,0.00,,,0.01,Wunderground v.1.15,2013-01-06 01:10:00,
2013-01-05 20:15:00,74.7,74.7,30.10,ENE,58,1.0,1.0,100,0.00,,,0.01,Wunderground v.1.15,2013-01-06 01:15:00,
2013-01-05 20:25:00,74.6,74.6,30.10,ENE,58,1.0,1.0,100,0.00,,,0.01,Wunderground v.1.15,2013-01-06 01:25:00,
2013-01-05 20:30:00,74.6,74.6,30.10,ENE,58,1.0,1.0,100,0.00,,,0.01,Wunderground v.1.15,2013-01-06 01:30:00,
2013-01-05 20:40:00,74.4,74.4,30.10,ENE,58,0.0,6.0,100,0.00,,,0.01,Wunderground v.1.15,2013-01-06 01:40:00,
2013-01-05 20:50:00,74.4,74.4,30.10,ENE,58,1.0,1.0,100,0.00,,,0.01,Wunderground v.1.15,2013-01-06 01:50:00,
2013-01-05 21:00:00,74.4,74.4,30.10,ENE,58,1.0,1.0,100,0.00,,,0.01,Wunderground v.1.15,2013-01-06 02:00:00,
2013-01-05 21:10:00,74.4,74.4,30.10,ENE,58,1.0,1.0,100,0.00,,,0.01,Wunderground v.1.15,2013-01-06 02:10:00,
2013-01-05 21:15:00,74.4,74.4,30.10,ENE,58,2.0,6.0,100,0.00,,,0.01,Wunderground v.1.15,2013-01-06 02:15:00,
2013-01-05 21:25:00,74.4,74.4,30.10,ENE,58,3.0,3.0,100,0.00,,,0.01,Wunderground v.1.15,2013-01-06 02:25:00,
2013-01-05 21:35:00,74.4,74.4,30.10,ENE,58,2.0,4.0,100,0.00,,,0.01,Wunderground v.1.15,2013-01-06 02:35:00,
2013-01-05 21:40:00,74.6,74.6,30.10,ENE,58,2.0,2.0,100,0.00,,,0.01,Wunderground v.1.15,2013-01-06 02:40:00,
2013-01-05 21:50:00,74.6,74.6,30.11,ENE,58,2.0,4.0,100,0.00,,,0.01,Wunderground v.1.15,2013-01-06 02:50:00,
2013-01-05 22:00:00,74.6,74.6,30.10,ENE,58,3.0,6.0,100,0.00,,,0.01,Wunderground v.1.15,2013-01-06 03:00:00,
2013-01-05 22:05:00,74.6,74.6,30.10,ENE,58,3.0,6.0,100,0.00,,,0.01,Wunderground v.1.15,2013-01-06 03:05:00,
2013-01-05 22:15:00,74.7,74.7,30.10,ENE,61,4.0,4.0,100,0.00,,,0.01,Wunderground v.1.15,2013-01-06 03:15:00,
2013-01-05 22:25:00,74.6,74.6,30.10,ENE,61,2.0,3.0,100,0.00,,,0.01,Wunderground v.1.15,2013-01-06 03:25:00,
2013-01-05 22:30:00,74.6,74.6,30.10,ENE,61,1.0,1.0,100,0.00,,,0.01,Wunderground v.1.15,2013-01-06 03:30:00,
2013-01-05 22:40:00,74.4,74.4,30.10,ENE,61,1.0,1.0,100,0.00,,,0.01,Wunderground v.1.15,2013-01-06 03:40:00,
2013-01-05 22:50:00,74.2,74.2,30.10,ENE,61,1.0,1.0,100,0.00,,,0.01,Wunderground v.1.15,2013-01-06 03:50:00,
2013-01-05 23:00:00,74.2,74.2,30.09,ENE,61,1.0,1.0,100,0.00,,,0.01,Wunderground v.1.15,2013-01-06 04:00:00,
2013-01-05 23:05:00,74.2,74.2,30.09,ENE,61,1.0,1.0,100,0.00,,,0.01,Wunderground v.1.15,2013-01-06 04:05:00,
2013-01-05 23:15:00,74.2,74.2,30.09,ENE,61,1.0,6.0,100,0.00,,,0.01,Wunderground v.1.15,2013-01-06 04:15:00,
2013-01-05 23:25:00,74.4,74.4,30.09,ENE,61,1.0,1.0,100,0.00,,,0.01,Wunderground v.1.15,2013-01-06 04:25:00,
2013-01-05 23:30:00,74.4,74.4,30.08,ENE,61,1.0,2.0,100,0.00,,,0.01,Wunderground v.1.15,2013-01-06 04:30:00,
2013-01-05 23:40:00,74.7,74.7,30.08,ENE,61,2.0,2.0,100,0.00,,,0.01,Wunderground v.1.15,2013-01-06 04:40:00,
2013-01-05 23:50:00,74.9,74.9,30.08,ENE,66,5.0,11.0,100,0.00,,,0.01,Wunderground v.1.15,2013-01-06 04:50:00,
2013-01-05 23:55:00,75.1,75.1,30.08,ENE,66,6.0,11.0,100,0.00,,,0.01,Wunderground v.1.15,2013-01-06 04:55:00,